Airfield :
LOGIN :

Register | Disclaimer

   EN    FR    IT 

 










Legend :    VFR   Marginal VFR   IFR   Intensive IFR   Very Intensive IFR
Visi :
Ceiling :
>= 8 km
>= 3000ft
5 to 8 km
1000 to 3000 ft
1500m to 5 km
500 to 1000 ft
800 to 1500m
200 to 500 ft
< 800m
< 200 ft
Symbols :   Thunderstorms  Fog  Heavy snow  Heavy precipitations  Wind > 20 kt
SIGMETs :     Misc.  Thunderstorms  Icing  Turbulence  Mountain Waves  Volcanic Ashes






- Airport Elevation : -13 ft
- IATA code : LEY


EHLE - Lelystad

CURRENT METAR :
  • 010055Z AUTO 06001KT 9999 NCD M02/M04 Q1027

EXPIRED METARs :
  • 010025Z AUTO 00000KT 9999 NCD M01/M04 Q1027
  • 312355Z AUTO 06001KT 9999 NCD M01/M04 Q1027
  • 312325Z AUTO 06001KT 9999 NCD M00/M03 Q1028
  • 312255Z AUTO 07002KT 9999 NCD 00/M03 Q1028
  • 312225Z AUTO 03002KT 9999 NCD 00/M03 Q1028

TAF TAF EHLE
Valid from the 01 at 00:00 until the 02 at 06:00 UTC


312303Z 0100/0206 VRB03KT CAVOK
BECMG 0109/0112 29010KT
PROB30
TEMPO 0110/0117 8000 -SHRA SCT025TCU
BECMG 0120/0123 23005KT
PROB30
TEMPO 0200/0206 4000 BR



MET'MAP, your aeronautical weather chart ! - Copyright ORBIFLY December 2007 - Disclaimer

ORBIFLY MET'MAP TEAM :

Programming & Development : Alexandra Zaïnal
Concept & original design : Baudouin d'Aumeries
Assistance for programming : Marc-Olivier Méhu
Technical & hardware support : Manuel Goepfert

Contact : metmap@orbifly.com




SOURCES & CREDITS :

   NOAA